Time;durP1;ratioP1;P1;durP2;ratioP2;P2;SDS_P1;SDS_P2;PMS_P1;PMS_P2;Temp;Humidity;BMP_temperature;BMP_pressure;BME280_temperature;BME280_humidity;BME280_pressure;Samples;Min_cycle;Max_cycle;Signal;HPM_P1;HPM_P2
2023/05/28 00:00:44;;;;;;;0.30;0.30;;;;;;;19.12;42.44;101374.22;5183253;28;20036;-85
2023/05/28 00:03:35;;;;;;;1.00;0.70;;;;;;;19.06;42.33;101377.16;5180848;28;20068;-85
2023/05/28 00:06:26;;;;;;;0.82;0.82;;;;;;;19.02;43.06;101375.63;5168773;28;20093;-85
2023/05/28 00:09:16;;;;;;;1.17;0.95;;;;;;;18.95;43.22;101375.06;5184782;28;20029;-84
2023/05/28 00:12:07;;;;;;;0.35;0.35;;;;;;;18.90;43.08;101376.22;5197969;28;20450;-86
2023/05/28 00:14:59;;;;;;;0.73;0.73;;;;;;;18.88;43.28;101369.19;5169894;28;20030;-85
2023/05/28 00:17:52;;;;;;;1.17;1.08;;;;;;;18.88;43.76;101374.50;5185154;28;20124;-85
2023/05/28 00:20:43;;;;;;;1.33;1.13;;;;;;;18.85;44.04;101364.03;5182760;28;20676;-85
2023/05/28 00:23:34;;;;;;;1.48;1.38;;;;;;;18.73;43.24;101359.34;5165738;28;20504;-85
2023/05/28 00:26:26;;;;;;;0.55;0.55;;;;;;;18.67;42.85;101359.66;5195100;28;20504;-85
2023/05/28 00:29:16;;;;;;;3.60;1.80;;;;;;;18.66;43.63;101358.81;5187180;28;21032;-86
2023/05/28 00:32:07;;;;;;;0.82;0.82;;;;;;;18.62;44.06;101361.72;5169458;28;20034;-85
2023/05/28 00:34:58;;;;;;;0.55;0.55;;;;;;;18.50;43.57;101358.72;5169164;28;20029;-85
2023/05/28 00:37:49;;;;;;;0.77;0.77;;;;;;;18.52;44.07;101359.50;5183631;28;20432;-85
2023/05/28 00:40:44;;;;;;;2.33;1.23;;;;;;;18.45;43.69;101355.44;5167324;28;20021;-85
2023/05/28 00:43:35;;;;;;;2.75;1.60;;;;;;;18.45;44.39;101355.44;5185570;28;20033;-85
2023/05/28 00:46:26;;;;;;;1.08;1.05;;;;;;;18.36;44.09;101356.75;5182172;28;20048;-86
2023/05/28 00:49:16;;;;;;;0.93;0.93;;;;;;;18.29;43.89;101350.03;5169611;28;20120;-85
2023/05/28 00:52:10;;;;;;;0.55;0.55;;;;;;;18.21;44.18;101353.06;5163800;28;20060;-85
2023/05/28 00:55:01;;;;;;;;;;;;;;;18.23;44.57;101347.69;5169113;28;20079;-85
2023/05/28 00:57:54;;;;;;;0.60;0.60;;;;;;;18.19;44.05;101352.28;5182281;28;20029;-85
2023/05/28 01:00:45;;;;;;;0.60;0.60;;;;;;;18.13;44.76;101341.09;5181979;28;20029;-85
2023/05/28 01:03:39;;;;;;;0.70;0.70;;;;;;;18.08;44.79;101349.28;5167916;28;20042;-85
2023/05/28 01:06:31;;;;;;;0.82;0.82;;;;;;;18.05;44.55;101346.78;5171571;28;20066;-85
2023/05/28 01:09:21;;;;;;;1.25;1.20;;;;;;;18.03;44.65;101338.88;5191337;28;20030;-86
2023/05/28 01:12:12;;;;;;;5.07;2.05;;;;;;;17.98;45.13;101340.03;5163670;28;20022;-86
2023/05/28 01:15:04;;;;;;;1.27;1.17;;;;;;;17.95;44.82;101338.38;5182902;28;20060;-86
2023/05/28 01:18:01;;;;;;;0.75;0.73;;;;;;;17.89;44.89;101342.16;5165129;28;20037;-85
2023/05/28 01:20:52;;;;;;;0.65;0.65;;;;;;;17.85;45.40;101337.09;5188644;28;20014;-85
2023/05/28 01:23:44;;;;;;;1.02;0.93;;;;;;;17.81;45.46;101344.31;5191378;28;20446;-85
2023/05/28 01:26:36;;;;;;;0.32;0.32;;;;;;;17.78;45.46;101347.16;5181694;28;20084;-85
2023/05/28 01:29:26;;;;;;;3.55;1.65;;;;;;;17.71;45.16;101335.94;5190262;28;20044;-85
2023/05/28 01:32:17;;;;;;;0.30;0.30;;;;;;;17.72;45.43;101339.50;5184575;28;20036;-85
2023/05/28 01:35:10;;;;;;;1.48;0.90;;;;;;;17.66;45.63;101339.75;5191335;28;20172;-85
2023/05/28 01:38:03;;;;;;;1.80;1.67;;;;;;;17.64;45.56;101336.34;5183481;28;20109;-85
2023/05/28 01:40:55;;;;;;;0.82;0.82;;;;;;;17.59;45.57;101340.03;5167940;28;20502;-86
2023/05/28 01:43:46;;;;;;;0.70;0.70;;;;;;;17.48;45.62;101339.66;5163541;28;20040;-85
2023/05/28 01:46:37;;;;;;;0.68;0.60;;;;;;;17.50;45.96;101332.50;5172955;28;20049;-85
2023/05/28 01:49:28;;;;;;;2.45;1.30;;;;;;;17.42;45.45;101332.00;5189990;28;20041;-85
2023/05/28 01:52:19;;;;;;;0.45;0.45;;;;;;;17.38;45.42;101335.75;5171213;28;21030;-85
2023/05/28 01:55:11;;;;;;;1.63;1.52;;;;;;;17.34;46.71;101323.53;5174586;28;20041;-85
2023/05/28 01:58:02;;;;;;;1.73;1.63;;;;;;;17.34;46.06;101324.41;5172131;28;20033;-85
2023/05/28 02:01:11;;;;;;;0.82;0.82;;;;;;;17.33;45.67;101319.16;5175814;28;20033;-84
2023/05/28 02:04:03;;;;;;;2.30;1.55;;;;;;;17.25;45.98;101319.53;5184520;28;20037;-85
2023/05/28 02:06:53;;;;;;;1.33;1.27;;;;;;;17.22;46.01;101317.88;5166598;28;20045;-86
2023/05/28 02:09:45;;;;;;;0.75;0.52;;;;;;;17.22;45.97;101315.25;5173468;28;20107;-85
2023/05/28 02:12:35;;;;;;;0.70;0.65;;;;;;;17.20;46.75;101311.78;5169944;28;20026;-85
2023/05/28 02:15:26;;;;;;;0.77;0.65;;;;;;;17.14;45.89;101312.06;5183743;28;20072;-85
2023/05/28 02:18:17;;;;;;;0.68;0.63;;;;;;;17.10;45.75;101313.13;5183826;28;20139;-85
2023/05/28 02:21:08;;;;;;;1.63;1.27;;;;;;;16.83;47.60;101319.56;5179396;28;20064;-85
2023/05/28 02:23:58;;;;;;;0.60;0.60;;;;;;;16.64;48.04;101308.91;5186976;28;20875;-85
2023/05/28 02:26:50;;;;;;;0.63;0.63;;;;;;;16.81;46.74;101307.31;5187253;28;20076;-85
2023/05/28 02:29:42;;;;;;;0.30;0.30;;;;;;;16.85;46.75;101314.19;5184722;28;20053;-84
2023/05/28 02:32:33;;;;;;;0.82;0.82;;;;;;;16.90;47.13;101314.00;5183853;28;20416;-85
2023/05/28 02:35:24;;;;;;;1.35;0.95;;;;;;;16.80;46.30;101311.75;5183835;28;20029;-84
2023/05/28 02:38:15;;;;;;;1.77;0.82;;;;;;;16.85;46.93;101314.19;5181800;28;20057;-85
2023/05/28 02:41:06;;;;;;;1.38;1.13;;;;;;;16.82;47.55;101314.31;5169993;28;20022;-85
2023/05/28 02:43:57;;;;;;;0.60;0.60;;;;;;;16.73;47.27;101317.38;5179414;28;20029;-85
2023/05/28 02:46:48;;;;;;;0.75;0.75;;;;;;;16.67;46.89;101313.22;5194284;28;20040;-85
2023/05/28 02:49:39;;;;;;;1.20;1.15;;;;;;;16.58;46.65;101313.59;5170514;28;20362;-85
2023/05/28 02:52:30;;;;;;;1.52;1.38;;;;;;;16.51;46.62;101319.16;5163977;28;20104;-84
2023/05/28 02:55:20;;;;;;;8.50;0.82;;;;;;;16.38;46.67;101317.09;5199252;28;20083;-85
2023/05/28 02:58:12;;;;;;;0.63;0.63;;;;;;;16.47;47.50;101322.88;5162164;28;20032;-85
2023/05/28 03:01:03;;;;;;;3.03;1.10;;;;;;;16.47;46.85;101316.72;5179051;28;20025;-85
2023/05/28 03:03:54;;;;;;;0.55;0.55;;;;;;;16.47;47.10;101322.88;5177062;28;20136;-85
2023/05/28 03:06:45;;;;;;;0.40;0.40;;;;;;;16.31;47.24;101314.72;5181924;28;20048;-85
2023/05/28 03:09:37;;;;;;;5.25;1.42;;;;;;;16.36;47.11;101318.03;5184151;28;20417;-84
2023/05/28 03:12:27;;;;;;;0.70;0.70;;;;;;;16.34;48.18;101321.66;5168022;28;20042;-84
2023/05/28 03:15:18;;;;;;;1.17;1.15;;;;;;;16.29;46.93;101324.50;5182486;28;20076;-84
2023/05/28 03:18:09;;;;;;;0.88;0.88;;;;;;;16.20;47.06;101328.38;5168926;28;20037;-85
2023/05/28 03:21:01;;;;;;;0.38;0.38;;;;;;;16.22;47.31;101320.41;5177402;28;20567;-85
2023/05/28 03:23:51;;;;;;;0.73;0.73;;;;;;;16.21;47.92;101324.81;5168969;28;20029;-85
2023/05/28 03:26:42;;;;;;;0.82;0.82;;;;;;;16.21;47.51;101323.97;5167867;28;20033;-85
2023/05/28 03:29:33;;;;;;;0.63;0.63;;;;;;;16.10;47.60;101329.69;5180155;28;20029;-84
2023/05/28 03:32:24;;;;;;;0.57;0.57;;;;;;;16.10;48.02;101334.13;5183055;28;20092;-85
2023/05/28 03:35:15;;;;;;;0.77;0.73;;;;;;;16.06;47.52;101336.03;5182316;28;20029;-84
2023/05/28 03:38:06;;;;;;;0.77;0.77;;;;;;;16.06;47.95;101330.72;5174381;28;20404;-85
2023/05/28 03:40:56;;;;;;;0.77;0.60;;;;;;;16.01;47.83;101330.91;5167850;28;20126;-85
2023/05/28 03:43:47;;;;;;;0.98;0.70;;;;;;;16.02;48.16;101332.63;5169849;28;20037;-85
2023/05/28 03:46:39;;;;;;;0.85;0.85;;;;;;;16.01;48.14;101333.56;5181224;28;20051;-84
2023/05/28 03:49:30;;;;;;;1.30;1.20;;;;;;;15.92;48.09;101336.56;5191534;28;20029;-84
2023/05/28 03:52:20;;;;;;;0.57;0.57;;;;;;;15.93;47.92;101342.75;5176893;28;20032;-85
2023/05/28 03:55:11;;;;;;;1.13;1.02;;;;;;;15.93;48.75;101343.59;5184160;28;20033;-85
2023/05/28 03:58:02;;;;;;;0.85;0.75;;;;;;;15.79;48.64;101345.91;5165803;28;20412;-85
2023/05/28 04:00:53;;;;;;;2.58;1.17;;;;;;;15.80;48.99;101353.75;5167945;28;20033;-86
2023/05/28 04:03:44;;;;;;;1.55;0.70;;;;;;;15.73;49.49;101347.88;5177734;28;20045;-84
2023/05/28 04:06:36;;;;;;;0.52;0.52;;;;;;;15.76;49.09;101346.88;5185743;28;20041;-84
2023/05/28 04:09:27;;;;;;;1.45;0.82;;;;;;;15.78;48.96;101350.34;5168210;28;20487;-84
2023/05/28 04:12:17;;;;;;;1.27;1.08;;;;;;;15.72;50.25;101351.44;5168368;28;20076;-85
2023/05/28 04:15:09;;;;;;;0.88;0.88;;;;;;;15.61;50.85;101348.31;5168251;28;20029;-85
2023/05/28 04:17:59;;;;;;;0.65;0.65;;;;;;;15.66;50.20;101349.00;5173136;28;20030;-84
2023/05/28 04:20:50;;;;;;;2.33;1.88;;;;;;;15.64;49.59;101342.94;5187258;28;20059;-85
2023/05/28 04:23:41;;;;;;;0.30;0.30;;;;;;;15.68;49.87;101343.66;5182164;28;20520;-86
2023/05/28 04:26:32;;;;;;;1.42;1.23;;;;;;;15.70;49.92;101350.63;5170559;28;20037;-87
2023/05/28 04:29:29;;;;;;;1.30;0.80;;;;;;;15.67;49.75;101353.38;5170539;28;20511;-86
2023/05/28 04:32:22;;;;;;;1.38;1.33;;;;;;;15.54;50.22;101346.84;5185447;28;20025;-85
2023/05/28 04:35:14;;;;;;;0.80;0.80;;;;;;;15.56;49.35;101339.72;5184855;28;20056;-86
2023/05/28 04:38:05;;;;;;;1.65;1.35;;;;;;;15.60;50.37;101346.59;5182955;28;20673;-86
2023/05/28 04:40:56;;;;;;;1.10;1.00;;;;;;;15.60;50.82;101343.09;5172009;28;20029;-87
2023/05/28 04:43:48;;;;;;;0.80;0.80;;;;;;;15.59;49.62;101350.16;5181679;28;20742;-86
2023/05/28 04:46:39;;;;;;;0.63;0.63;;;;;;;15.64;50.42;101348.22;5167981;28;20045;-85
2023/05/28 04:49:31;;;;;;;4.72;1.23;;;;;;;15.64;50.42;101352.63;5185489;28;20551;-86
2023/05/28 04:52:22;;;;;;;0.57;0.57;;;;;;;15.67;50.58;101356.03;5186815;28;20093;-86
2023/05/28 04:55:13;;;;;;;2.50;0.80;;;;;;;15.66;50.50;101356.94;5178442;28;20025;-85
2023/05/28 04:58:03;;;;;;;2.17;1.88;;;;;;;15.64;49.96;101361.44;5164029;28;20029;-85
2023/05/28 05:00:55;;;;;;;1.20;0.77;;;;;;;15.54;50.19;101360.06;5182606;28;20040;-84
2023/05/28 05:03:46;;;;;;;1.75;1.40;;;;;;;15.47;49.96;101371.78;5191278;28;20009;-83
2023/05/28 05:06:37;;;;;;;1.00;1.00;;;;;;;15.41;50.93;101379.00;5171464;28;20046;-86
2023/05/28 05:09:28;;;;;;;0.40;0.38;;;;;;;15.48;50.70;101384.09;5170447;28;20881;-86
2023/05/28 05:12:21;;;;;;;1.20;1.20;;;;;;;15.40;51.40;101390.53;5166521;28;20026;-86
2023/05/28 05:15:12;;;;;;;1.60;1.50;;;;;;;15.27;51.46;101391.88;5197228;28;20116;-86
2023/05/28 05:18:02;;;;;;;0.52;0.52;;;;;;;15.27;52.85;101391.88;5183108;28;20116;-85
2023/05/28 05:20:55;;;;;;;0.85;0.85;;;;;;;15.33;51.58;101394.31;5167534;28;20021;-85
2023/05/28 05:23:46;;;;;;;1.63;1.52;;;;;;;15.42;51.66;101393.97;5180509;28;20324;-86
2023/05/28 05:26:36;;;;;;;0.43;0.43;;;;;;;15.20;52.50;101388.63;5162890;28;20033;-85
2023/05/28 05:29:27;;;;;;;0.77;0.77;;;;;;;15.16;53.46;101394.91;5163651;28;20044;-84
2023/05/28 05:32:18;;;;;;;0.70;0.70;;;;;;;15.20;52.91;101390.38;5166699;28;20034;-86
2023/05/28 05:35:09;;;;;;;0.52;0.52;;;;;;;14.96;55.38;101390.34;5182998;28;20779;-86
2023/05/28 05:37:59;;;;;;;2.17;1.77;;;;;;;14.90;56.92;101390.56;5176943;28;20068;-85
2023/05/28 05:40:50;;;;;;;0.45;0.45;;;;;;;15.15;54.30;101393.19;5168710;28;20544;-86
2023/05/28 05:43:41;;;;;;;0.88;0.88;;;;;;;14.99;55.11;101392.88;5165894;28;20661;-84
2023/05/28 05:46:32;;;;;;;2.58;1.35;;;;;;;15.19;53.95;101388.66;5166941;28;20065;-85
2023/05/28 05:49:23;;;;;;;0.68;0.68;;;;;;;15.06;55.19;101396.16;5164744;28;20033;-85
2023/05/28 05:52:13;;;;;;;1.33;1.23;;;;;;;15.32;53.13;101395.25;5181157;28;20029;-86
2023/05/28 05:55:05;;;;;;;0.63;0.63;;;;;;;15.31;53.37;101395.28;5180114;28;20044;-85
2023/05/28 05:57:58;;;;;;;1.10;1.10;;;;;;;15.41;52.17;101399.31;5168890;28;20044;-85
2023/05/28 06:00:49;;;;;;;2.75;1.75;;;;;;;15.32;55.33;101397.00;5168041;28;20034;-84
2023/05/28 06:03:40;;;;;;;1.65;1.55;;;;;;;15.13;56.11;101400.31;5162997;28;20081;-85
2023/05/28 06:06:31;;;;;;;0.65;0.65;;;;;;;15.21;54.79;101397.41;5165188;28;20053;-85
2023/05/28 06:09:21;;;;;;;1.05;0.98;;;;;;;15.20;55.23;101400.97;5170935;28;20029;-85
2023/05/28 06:12:12;;;;;;;2.67;2.03;;;;;;;15.27;53.56;101405.97;5171463;28;20037;-86
2023/05/28 06:15:05;;;;;;;1.23;1.08;;;;;;;15.47;52.54;101403.53;5173920;28;20120;-87
2023/05/28 06:17:56;;;;;;;12.63;0.88;;;;;;;15.53;52.22;101398.00;5203802;28;20029;-85
2023/05/28 06:20:49;;;;;;;1.73;1.20;;;;;;;15.60;52.05;101399.50;5184816;28;20128;-86
2023/05/28 06:23:40;;;;;;;0.40;0.40;;;;;;;15.44;56.00;101404.50;5177935;28;20034;-86
2023/05/28 06:26:30;;;;;;;9.73;1.30;;;;;;;15.49;54.99;101407.84;5173265;28;20372;-83
2023/05/28 06:29:21;;;;;;;0.68;0.68;;;;;;;15.48;54.27;101405.25;5189363;28;20060;-85
2023/05/28 06:32:13;;;;;;;3.22;1.45;;;;;;;15.59;54.12;101392.47;5191466;28;20022;-85
2023/05/28 06:35:04;;;;;;;3.80;1.02;;;;;;;15.63;54.35;101396.75;5182007;28;20025;-85
2023/05/28 06:37:54;;;;;;;0.60;0.52;;;;;;;15.69;53.01;101399.16;5178139;28;20075;-85
2023/05/28 06:40:45;;;;;;;0.20;0.20;;;;;;;15.80;52.60;101389.97;5211113;28;20033;-87
2023/05/28 06:43:38;;;;;;;5.32;0.77;;;;;;;15.83;52.52;101396.03;5179772;28;20033;-86
2023/05/28 06:46:29;;;;;;;0.35;0.35;;;;;;;15.91;52.11;101390.41;5188157;28;20038;-85
2023/05/28 06:49:19;;;;;;;1.15;1.05;;;;;;;15.90;52.94;101388.72;5189980;28;20051;-85
2023/05/28 06:52:10;;;;;;;0.60;0.60;;;;;;;15.88;53.58;101386.13;5193770;28;20148;-85
2023/05/28 06:55:01;;;;;;;0.70;0.70;;;;;;;15.94;54.20;101390.31;5200408;28;20076;-85
2023/05/28 06:57:52;;;;;;;0.47;0.47;;;;;;;16.03;52.69;101379.38;5182377;28;20464;-85
2023/05/28 07:00:42;;;;;;;0.55;0.47;;;;;;;16.11;52.10;101380.84;5182620;28;20544;-84
2023/05/28 07:03:35;;;;;;;0.35;0.35;;;;;;;16.16;52.39;101386.81;5185709;28;20042;-86
2023/05/28 07:06:25;;;;;;;2.03;0.88;;;;;;;16.24;51.49;101383.88;5201344;28;20065;-85
2023/05/28 07:09:16;;;;;;;2.17;1.95;;;;;;;16.33;51.74;101389.63;5185294;28;20021;-86
2023/05/28 07:12:07;;;;;;;1.05;1.05;;;;;;;16.40;51.13;101389.41;5194353;28;20049;-85
2023/05/28 07:14:58;;;;;;;1.00;0.98;;;;;;;16.40;51.48;101392.91;5194888;28;20044;-86
2023/05/28 07:17:49;;;;;;;0.40;0.35;;;;;;;16.49;51.67;101394.31;5180376;28;20107;-85
2023/05/28 07:20:40;;;;;;;1.02;0.93;;;;;;;16.57;51.17;101392.19;5194084;28;20045;-85
2023/05/28 07:23:31;;;;;;;0.35;0.35;;;;;;;16.56;50.85;101397.56;5174135;28;20045;-84
2023/05/28 07:26:21;;;;;;;0.52;0.52;;;;;;;16.67;50.67;101398.00;5190628;28;20510;-86
2023/05/28 07:29:18;;;;;;;2.60;1.15;;;;;;;16.72;51.13;101398.66;5164805;28;20092;-86
2023/05/28 07:32:09;;;;;;;0.25;0.25;;;;;;;16.77;50.59;101399.34;5178791;28;20029;-84
2023/05/28 07:35:00;;;;;;;0.45;0.45;;;;;;;16.79;50.94;101394.81;5168513;28;20044;-85
2023/05/28 07:37:53;;;;;;;1.65;0.95;;;;;;;16.92;51.09;101404.91;5183341;28;20037;-85
2023/05/28 07:40:43;;;;;;;6.50;2.30;;;;;;;17.02;50.62;101400.09;5167604;28;20125;-86
2023/05/28 07:43:34;;;;;;;0.55;0.55;;;;;;;17.06;50.43;101404.34;5186930;28;20054;-86
2023/05/28 07:46:25;;;;;;;1.27;1.17;;;;;;;17.11;50.62;101410.31;5169030;28;20041;-85
2023/05/28 07:49:16;;;;;;;1.27;1.15;;;;;;;17.18;51.24;101398.50;5182071;28;20025;-84
2023/05/28 07:52:07;;;;;;;1.13;0.95;;;;;;;17.30;51.93;101397.09;5172598;28;20029;-86
2023/05/28 07:55:00;;;;;;;0.28;0.28;;;;;;;17.39;50.79;101394.03;5200823;28;20057;-85
2023/05/28 07:57:51;;;;;;;;;;;;;;;17.52;50.62;101402.28;5167656;28;20049;-85
2023/05/28 08:00:42;;;;;;;8.15;0.65;;;;;;;17.64;49.51;101405.31;5176212;28;19909;-84
2023/05/28 08:03:33;;;;;;;2.53;1.05;;;;;;;17.69;49.39;101404.16;5198757;28;20044;-86
2023/05/28 08:06:24;;;;;;;0.80;0.80;;;;;;;17.72;49.41;101403.19;5191499;28;20124;-84
2023/05/28 08:09:17;;;;;;;0.70;0.70;;;;;;;17.71;49.88;101402.31;5191767;28;20588;-85
2023/05/28 08:12:08;;;;;;;;;;;;;;;17.86;51.23;101394.53;5193548;28;20254;-84
2023/05/28 08:14:59;;;;;;;0.68;0.68;;;;;;;17.85;50.92;101396.34;5193943;28;20137;-86
2023/05/28 08:17:50;;;;;;;0.45;0.45;;;;;;;17.92;51.12;101392.47;5179037;28;20034;-85
2023/05/28 08:20:41;;;;;;;0.65;0.65;;;;;;;17.99;51.67;101390.44;5177040;28;20033;-85
2023/05/28 08:23:34;;;;;;;0.30;0.30;;;;;;;18.11;49.88;101388.09;5194353;28;20597;-86
2023/05/28 08:26:25;;;;;;;;;;;;;;;18.19;50.15;101386.81;5177831;28;20055;-84
2023/05/28 08:29:16;;;;;;;0.63;0.63;;;;;;;18.22;49.88;101381.34;5203127;28;20042;-86
2023/05/28 08:32:07;;;;;;;1.05;0.45;;;;;;;18.32;50.19;101379.09;5190342;28;20025;-85
2023/05/28 08:34:57;;;;;;;0.68;0.68;;;;;;;18.45;49.99;101371.38;5185879;28;20129;-85
2023/05/28 08:37:49;;;;;;;0.50;0.50;;;;;;;18.55;49.85;101377.09;5170189;28;20041;-84
2023/05/28 08:40:43;;;;;;;0.40;0.40;;;;;;;18.56;50.24;101366.38;5170480;28;20037;-85
2023/05/28 08:43:33;;;;;;;0.30;0.30;;;;;;;18.60;49.24;101366.22;5171543;28;20033;-87
2023/05/28 08:46:25;;;;;;;0.70;0.70;;;;;;;18.63;49.62;101358.13;5174743;28;20084;-84
2023/05/28 08:49:20;;;;;;;0.68;0.65;;;;;;;18.80;49.88;101360.75;5174854;28;20041;-85
2023/05/28 08:52:12;;;;;;;0.68;0.30;;;;;;;18.95;49.32;101352.97;5169489;28;20026;-86
2023/05/28 08:55:05;;;;;;;4.97;1.70;;;;;;;18.93;49.99;101358.34;5181358;28;20156;-86
2023/05/28 08:57:56;;;;;;;0.63;0.63;;;;;;;18.97;49.43;101357.25;5165587;28;20497;-86
2023/05/28 09:00:47;;;;;;;0.47;0.47;;;;;;;18.97;49.53;101354.59;5165240;28;20036;-85
2023/05/28 09:03:40;;;;;;;1.05;1.02;;;;;;;19.08;48.82;101358.50;5165198;28;20048;-84
2023/05/28 09:06:31;;;;;;;1.30;1.20;;;;;;;19.19;48.20;101346.34;5178057;28;20512;-83
2023/05/28 09:09:23;;;;;;;0.50;0.50;;;;;;;19.27;47.35;101342.41;5193826;28;20029;-87
2023/05/28 09:12:20;;;;;;;0.25;0.25;;;;;;;19.32;48.45;101345.66;5185323;28;20107;-83
2023/05/28 09:15:11;;;;;;;1.23;1.08;;;;;;;19.35;46.87;101346.34;5184487;28;20025;-86
2023/05/28 09:18:04;;;;;;;0.43;0.38;;;;;;;19.51;46.76;101337.53;5168039;28;20025;-85
2023/05/28 09:20:59;;;;;;;0.52;0.52;;;;;;;19.59;46.64;101339.78;5166051;28;20033;-85
2023/05/28 09:23:51;;;;;;;0.57;0.57;;;;;;;19.55;46.60;101338.22;5158252;28;20042;-85
2023/05/28 09:26:41;;;;;;;0.70;0.63;;;;;;;19.66;45.17;101344.69;5168837;28;20038;-84
2023/05/28 09:29:32;;;;;;;1.13;0.75;;;;;;;19.65;44.68;101335.00;5188007;28;20029;-85
2023/05/28 09:32:23;;;;;;;1.65;1.00;;;;;;;19.74;44.96;101341.59;5165850;28;20297;-83
2023/05/28 09:35:15;;;;;;;1.73;1.30;;;;;;;19.97;43.95;101329.69;5168169;28;20463;-85
2023/05/28 09:38:13;;;;;;;0.80;0.80;;;;;;;19.95;43.65;101334.22;5165441;28;20048;-86
2023/05/28 09:41:04;;;;;;;0.75;0.75;;;;;;;19.96;42.70;101330.63;5180828;28;20043;-85
2023/05/28 09:43:59;;;;;;;0.57;0.57;;;;;;;20.10;42.57;101331.63;5174929;28;20038;-85
2023/05/28 09:46:50;;;;;;;0.40;0.40;;;;;;;20.20;41.28;101319.50;5185517;28;20037;-84
2023/05/28 09:49:45;;;;;;;1.35;1.25;;;;;;;20.11;43.18;101312.03;5171578;28;20033;-84
2023/05/28 09:52:39;;;;;;;0.40;0.40;;;;;;;20.30;43.46;101311.81;5182869;28;20025;-84
2023/05/28 09:55:32;;;;;;;0.43;0.43;;;;;;;20.34;41.28;101318.69;5182822;28;20030;-85
2023/05/28 09:58:31;;;;;;;0.75;0.75;;;;;;;20.39;40.88;101308.59;5172051;28;20151;-83
2023/05/28 10:01:25;;;;;;;0.40;0.40;;;;;;;20.49;41.47;101310.72;5192395;28;20029;-83
2023/05/28 10:04:20;;;;;;;0.57;0.57;;;;;;;20.50;42.04;101305.28;5174025;28;20017;-85
2023/05/28 10:07:12;;;;;;;0.80;0.80;;;;;;;20.62;42.21;101321.50;5175643;28;20047;-85
2023/05/28 10:10:04;;;;;;;0.40;0.40;;;;;;;20.71;42.30;101310.31;5178142;28;20117;-85
2023/05/28 10:12:57;;;;;;;1.35;0.47;;;;;;;20.63;43.00;101315.25;5178166;28;20034;-84
2023/05/28 10:15:49;;;;;;;1.40;1.20;;;;;;;20.70;43.07;101320.09;5178429;28;20029;-84
2023/05/28 10:18:44;;;;;;;1.15;1.05;;;;;;;20.85;41.91;101315.69;5187187;28;20042;-85
2023/05/28 10:21:36;;;;;;;1.38;1.25;;;;;;;20.82;42.18;101323.00;5191485;28;20033;-85
2023/05/28 10:24:27;;;;;;;1.40;1.15;;;;;;;20.83;41.29;101316.72;5175676;28;20029;-85
2023/05/28 10:27:18;;;;;;;0.40;0.40;;;;;;;21.05;40.81;101319.78;5172767;28;20736;-84
2023/05/28 10:30:11;;;;;;;0.50;0.50;;;;;;;21.07;41.26;101323.22;5171354;28;20026;-86
2023/05/28 10:33:07;;;;;;;0.47;0.47;;;;;;;21.06;41.92;101320.66;5167464;28;20103;-86
2023/05/28 10:36:00;;;;;;;0.30;0.30;;;;;;;21.25;41.72;101317.69;5189381;28;20128;-85
2023/05/28 10:38:51;;;;;;;2.90;1.20;;;;;;;21.29;41.70;101316.53;5164790;28;20017;-84
2023/05/28 10:41:42;;;;;;;0.20;0.20;;;;;;;21.42;40.98;101319.28;5197935;28;20547;-86
2023/05/28 10:44:48;;;;;;;0.95;0.77;;;;;;;21.48;40.88;101310.03;5183594;28;20030;-84
2023/05/28 10:47:42;;;;;;;1.30;1.20;;;;;;;21.48;37.38;101320.72;5160581;28;20038;-86
2023/05/28 10:50:33;;;;;;;4.75;1.60;;;;;;;21.48;38.58;101313.56;5183099;28;20053;-84
2023/05/28 10:53:25;;;;;;;0.30;0.30;;;;;;;21.58;40.03;101321.88;5192517;28;20049;-86
2023/05/28 10:56:17;;;;;;;0.45;0.45;;;;;;;21.74;40.70;101308.38;5175058;28;20034;-86
2023/05/28 10:59:14;;;;;;;0.70;0.70;;;;;;;21.74;38.64;101310.19;5176627;28;20029;-85
2023/05/28 11:02:09;;;;;;;1.13;0.95;;;;;;;21.95;39.82;101313.28;5173578;28;20034;-85
2023/05/28 11:05:03;;;;;;;0.60;0.60;;;;;;;21.91;39.55;101307.28;5174357;28;20048;-86
2023/05/28 11:07:55;;;;;;;;;;;;;;;21.95;39.70;101313.28;5179346;28;20072;-84
2023/05/28 11:10:48;;;;;;;0.63;0.63;;;;;;;22.11;38.80;101313.09;5187042;28;19932;-86
2023/05/28 11:13:44;;;;;;;0.77;0.77;;;;;;;22.08;39.05;101308.81;5202729;28;20044;-84
2023/05/28 11:16:34;;;;;;;0.65;0.65;;;;;;;22.16;36.69;101298.47;5186969;28;20616;-86
2023/05/28 11:19:25;;;;;;;2.58;1.70;;;;;;;22.15;37.68;101310.13;5177465;28;20035;-84
2023/05/28 11:22:18;;;;;;;0.60;0.60;;;;;;;22.18;36.90;101301.06;5169878;28;20121;-85
2023/05/28 11:25:12;;;;;;;0.43;0.43;;;;;;;22.38;38.91;101309.53;5194271;28;20618;-84
2023/05/28 11:28:02;;;;;;;2.15;1.70;;;;;;;22.41;38.06;101312.03;5185121;28;20034;-85
2023/05/28 11:30:56;;;;;;;0.30;0.30;;;;;;;22.42;38.76;101313.75;5169215;28;20057;-84
2023/05/28 11:33:50;;;;;;;0.40;0.40;;;;;;;22.45;38.28;101306.38;5183572;28;20112;-84
2023/05/28 11:36:43;;;;;;;1.65;0.93;;;;;;;22.75;37.08;101309.72;5167927;28;20885;-84
2023/05/28 11:39:34;;;;;;;1.60;0.97;;;;;;;22.74;38.04;101297.31;5167139;28;20124;-86
2023/05/28 11:42:28;;;;;;;0.50;0.50;;;;;;;22.82;36.07;101302.13;5170505;28;20100;-85
2023/05/28 11:45:19;;;;;;;0.63;0.52;;;;;;;22.70;34.58;101309.19;5169833;28;20392;-85
2023/05/28 11:48:13;;;;;;;0.50;0.50;;;;;;;22.60;35.62;101307.13;5171551;28;20025;-84
2023/05/28 11:51:05;;;;;;;0.40;0.40;;;;;;;22.76;34.64;101298.06;5184719;28;20045;-86
2023/05/28 11:53:56;;;;;;;0.85;0.85;;;;;;;22.85;35.84;101301.91;5184967;28;20030;-84
2023/05/28 11:56:50;;;;;;;1.55;0.45;;;;;;;22.79;37.07;101293.38;5195456;28;20096;-86
2023/05/28 11:59:41;;;;;;;0.32;0.32;;;;;;;22.86;36.82;101298.28;5187507;28;20135;-85
2023/05/28 12:02:32;;;;;;;0.32;0.32;;;;;;;22.95;36.52;101294.97;5184627;28;20033;-86
2023/05/28 12:05:23;;;;;;;1.35;0.95;;;;;;;;;;5170663;28;20424;-85
2023/05/28 12:08:18;;;;;;;0.40;0.40;;;;;;;23.02;37.48;101287.34;5187624;28;20466;-88
2023/05/28 12:11:10;;;;;;;0.40;0.40;;;;;;;23.11;37.45;101297.38;5192062;28;20029;-87
2023/05/28 12:14:11;;;;;;;0.82;0.82;;;;;;;23.12;36.76;101293.75;5172286;28;20018;-86
2023/05/28 12:17:10;;;;;;;2.08;0.73;;;;;;;23.20;36.71;101291.41;5168478;28;20049;-86
2023/05/28 12:20:01;;;;;;;0.20;0.20;;;;;;;23.30;34.59;101286.28;5173854;28;20036;-84
2023/05/28 12:23:08;;;;;;;0.52;0.52;;;;;;;23.24;34.32;101284.00;5184280;28;20034;-85
2023/05/28 12:25:59;;;;;;;0.50;0.50;;;;;;;23.45;36.14;101284.28;5182549;28;20040;-87
2023/05/28 12:28:50;;;;;;;0.75;0.50;;;;;;;23.48;34.39;101284.06;5170238;28;20036;-85
2023/05/28 12:31:41;;;;;;;0.40;0.40;;;;;;;23.56;35.20;101284.38;5179820;28;20512;-85
2023/05/28 12:34:32;;;;;;;0.20;0.20;;;;;;;23.61;34.65;101284.03;5170507;28;20036;-86
2023/05/28 12:37:23;;;;;;;1.50;1.02;;;;;;;23.68;35.11;101269.22;5178559;28;20108;-86
2023/05/28 12:40:14;;;;;;;7.05;1.65;;;;;;;23.99;35.61;101276.81;5163035;28;20056;-86
2023/05/28 12:43:06;;;;;;;1.52;1.42;;;;;;;23.92;34.14;101272.84;5167038;28;20054;-85
2023/05/28 12:45:57;;;;;;;0.32;0.32;;;;;;;23.88;34.43;101274.91;5166289;28;20680;-84
2023/05/28 12:48:47;;;;;;;0.40;0.40;;;;;;;23.83;33.77;101269.91;5168500;28;20055;-87
2023/05/28 12:51:38;;;;;;;0.20;0.20;;;;;;;24.09;33.44;101267.09;5183675;28;20037;-84
2023/05/28 12:54:29;;;;;;;1.40;0.95;;;;;;;24.16;33.71;101257.63;5174109;28;20095;-84
2023/05/28 12:57:20;;;;;;;0.30;0.30;;;;;;;24.20;33.27;101250.22;5187309;28;20382;-86
2023/05/28 13:00:12;;;;;;;0.88;0.88;;;;;;;24.35;34.45;101257.06;5178272;28;20040;-86
2023/05/28 13:03:02;;;;;;;0.68;0.68;;;;;;;24.29;33.65;101259.34;5160482;28;20046;-84
2023/05/28 13:05:53;;;;;;;1.20;0.93;;;;;;;24.35;34.56;101261.56;5184242;28;20079;-88
2023/05/28 13:08:44;;;;;;;2.30;2.10;;;;;;;24.32;33.75;101259.97;5169359;28;20609;-84
2023/05/28 13:11:36;;;;;;;1.48;1.38;;;;;;;24.50;33.72;101249.63;5171312;28;20060;-85
2023/05/28 13:14:28;;;;;;;1.42;1.23;;;;;;;24.58;34.11;101250.88;5182571;28;20021;-85
2023/05/28 13:17:20;;;;;;;0.77;0.77;;;;;;;24.57;34.42;101249.19;5185026;28;20033;-86
2023/05/28 13:20:11;;;;;;;1.92;0.73;;;;;;;24.79;32.51;101243.84;5173179;28;20026;-87